Sao Tome, Brazil
Current Conditions -  °F | °C
As of 1:00 AM on Friday 19 Dec 2014 (Local Time) from SBNT Reporting Station
Rain Showers Rain Showers  
Wind Chill: 75°   Ceiling: Unl
Heat Index: 75°   Visibility: 6mi
Dew Point: 72°   Wind: 9mph
Humidity: 89%   Direction: 110°ESE
Pressure: NA   Gusts: NA
Location:  5.97°S, 36.08°W
Report Text: SBNT 190400Z 11008KT 9999 VCSH FEW009 SCT019 FEW030TCU 24/22 Q1012 RERA
Loading
Personal Weather Stations






























Interactive Weather Map New forecast layout! Learn more

10-Day Weather Forecast

Advertisements
Track Severe Weather on mobile